Saturday, June 25, 2016
05:10 UTC
  |  Log In   |  Register Free
Airport Search:

Foothills Regional Airport
(KMRN)

Foothills Regional Airport Diagram
No Airport Diagram Available

FAA data valid effective May 26 2016 - Jul 21 2016 (unless otherwise noted).

 
 
 
 
 
 
 
 
 
 
 
 
 
 
Current Aviation Weather for KMRN

Weather Summary


The most recent METAR observation for MRN was updated at: 12:55 UTC
METAR for KMRN is not available. Closest METAR is for KHKY
KMRN  (most recent observation was updatred at 25:04 UTC)
250445Z AUTO 32003KT 10SM CLR 21/20 A3012 RMK AO2 T02100202

KHKY  (11.8 nm NW)   (most recent observation was updated at 25:04 UTC)
250453Z AUTO 30004KT 10SM FEW080 24/18 A3005 RMK AO2 SLP152 T02440183 403280206

KFQD  (28.3 nm NE)   (most recent observation was updated at 25:04 UTC)
250450Z AUTO 00000KT 10SM CLR 25/18 A3006 RMK AO2 T02510183

TAF for KMRN is not available.
KHKY  (11.8 nm NW)   (most recent observation was updatred at 24:23 UTC)
242320Z 2500/2524 35004KT P6SM SCT060 FM251400 04005KT P6SM FEW060 SCT250


GlobalAir.com is loading additional information.
 Current Weather at MRN
67.0 F° (19.5 C°)

North winds at 0.0 mph
Pressure:
30.12 in
Humidity:
97%
Wind:
North at 0.0 mph
Dew Point:
66.2 F° (19.0 C°)
Visibility:
10.00 mi
MRN NOAA Radar




Find All Airport Services Find A Hotel Find A Rental Car Find A Golf Course Find A Restaurant $100 Hamburger



Airport Weather Forecast for KMRN

Translated METAR for KMRN (0445 UTC)
METAR:
KMRN 250445Z AUTO 32003KT 10SM CLR 21/20 A3012 RMK AO2 T02100202
Conditions at:
KMRN (Foothills Regional, NC) observed 0445 UTC 25 June 2016
Temperature:
21°C (69.8°F)
Dewpoint:
20°C (68°F) [RH = 94]
Pressure:
30.12 inches Hg (1020 mb)
Winds:
from the NW (320 degrees) at 3.5 mph (3 knots: 1.5 m/s)
Visibility:
10 mile(s)
Ceiling:
at least 12,000 feet AGL
Clouds:
Clear below 12,000 feet AGL
Remarks:
site is un-manned
site is automated and HAS a precipitation sensor

Translated TAF for KHKY (Hickory Rgnl, NC) (2320 UTC)
TAF text:
KHKY 242320Z 2500/2524 35004KT P6SM SCT060
Forecast period:
Saturday Jun 25 2016 00:00 UTC - Saturday Jun 25 2016 24:00 UTC
Forecast type:
FROM: standard forecast or significant change
Winds:
from the N (350 degrees) at 4.6 mph (4 knots: 2.1 m/s)
Visibility:
6 or more mile(s) (9.7+ km)
Ceiling:
at least 12,000 feet AGL
Clouds:
Scattered Clouds at 6,000 feet AGL
Weather:
no significant weather observed at this time
TAF text:
FM251400 04005KT P6SM FEW060 SCT250
Forecast period:
Saturday Jun 25 2016 14:00 UTC - Saturday Jun 25 2016 24:00 UTC
Forecast type:
FROM: standard forecast or significant change
Winds:
from the NE (040 degrees) at 5.8 mph (5 knots: 2.6 m/s)
Visibility:
6 or more mile(s) (9.7+ km)
Ceiling:
at least 12,000 feet AGL
Clouds:
Few Clouds at 6,000 feet AGL
Scattered Clouds at 25,000 feet AGL
Weather:
no significant weather observed at this time
FBO's on the Field
FBO Company Facility Photos Services Transportation Aviation Fuel Prices: Prices include tax
Catering Weather Repair Courtesy Rental Type 100LL JetA JetA+ MOGAS 8087
 
Foothills Aviation

This FBO has not yet been rated
FS:Shell
Last Updated: Jun-06
Login to update fuel prices
SS:
Contact Foothills AviationMore FBO Information
 
Add another FBO Facility Photos Catering Weather Repair Courtesy Rental Type 100LL JetA JetA+ MOGAS 8087
Services Transportation Aviation Fuel Prices: Prices include tax


model-print
model-print
model-print
model-print